sensor_id;sensor_type;location;lat;lon;timestamp;temperature;humidity
67598;DHT22;62026;39.230;9.122;2022-12-29T00:02:19;13.90;64.00
67598;DHT22;62026;39.230;9.122;2022-12-29T00:04:45;13.90;64.00
67598;DHT22;62026;39.230;9.122;2022-12-29T00:07:11;13.90;64.20
67598;DHT22;62026;39.230;9.122;2022-12-29T00:09:37;13.90;64.20
67598;DHT22;62026;39.230;9.122;2022-12-29T00:12:04;13.90;64.30
67598;DHT22;62026;39.230;9.122;2022-12-29T00:14:30;13.90;64.40
67598;DHT22;62026;39.230;9.122;2022-12-29T00:17:15;13.90;64.50
67598;DHT22;62026;39.230;9.122;2022-12-29T00:19:41;13.90;64.60
67598;DHT22;62026;39.230;9.122;2022-12-29T00:22:26;13.90;64.70
67598;DHT22;62026;39.230;9.122;2022-12-29T00:25:12;13.90;64.80
67598;DHT22;62026;39.230;9.122;2022-12-29T00:27:57;13.80;64.80
67598;DHT22;62026;39.230;9.122;2022-12-29T00:30:42;13.80;64.60
67598;DHT22;62026;39.230;9.122;2022-12-29T00:33:32;13.80;64.50
67598;DHT22;62026;39.230;9.122;2022-12-29T00:36:41;13.80;64.40
67598;DHT22;62026;39.230;9.122;2022-12-29T00:39:17;13.80;64.20
67598;DHT22;62026;39.230;9.122;2022-12-29T00:42:06;13.80;64.00
67598;DHT22;62026;39.230;9.122;2022-12-29T00:44:52;13.70;63.80
67598;DHT22;62026;39.230;9.122;2022-12-29T00:47:18;13.70;63.80
67598;DHT22;62026;39.230;9.122;2022-12-29T00:49:44;13.70;63.70
67598;DHT22;62026;39.230;9.122;2022-12-29T00:52:12;13.60;63.70
67598;DHT22;62026;39.230;9.122;2022-12-29T00:54:40;13.60;63.60
67598;DHT22;62026;39.230;9.122;2022-12-29T00:57:08;13.60;63.60
67598;DHT22;62026;39.230;9.122;2022-12-29T00:59:39;13.60;63.60
67598;DHT22;62026;39.230;9.122;2022-12-29T01:02:07;13.60;63.50
67598;DHT22;62026;39.230;9.122;2022-12-29T01:04:35;13.60;63.50
67598;DHT22;62026;39.230;9.122;2022-12-29T01:07:01;13.50;63.50
67598;DHT22;62026;39.230;9.122;2022-12-29T01:09:27;13.50;63.60
67598;DHT22;62026;39.230;9.122;2022-12-29T01:12:12;13.50;63.50
67598;DHT22;62026;39.230;9.122;2022-12-29T01:14:38;13.50;63.50
67598;DHT22;62026;39.230;9.122;2022-12-29T01:17:05;13.50;63.70
67598;DHT22;62026;39.230;9.122;2022-12-29T01:19:32;13.50;63.60
67598;DHT22;62026;39.230;9.122;2022-12-29T01:21:58;13.50;63.70
67598;DHT22;62026;39.230;9.122;2022-12-29T01:24:24;13.50;63.80
67598;DHT22;62026;39.230;9.122;2022-12-29T01:26:51;13.50;63.80
67598;DHT22;62026;39.230;9.122;2022-12-29T01:29:17;13.50;63.80
67598;DHT22;62026;39.230;9.122;2022-12-29T01:31:45;13.50;63.90
67598;DHT22;62026;39.230;9.122;2022-12-29T01:34:11;13.40;63.80
67598;DHT22;62026;39.230;9.122;2022-12-29T01:36:37;13.40;63.80
67598;DHT22;62026;39.230;9.122;2022-12-29T01:39:03;13.40;63.70
67598;DHT22;62026;39.230;9.122;2022-12-29T01:41:29;13.40;63.60
67598;DHT22;62026;39.230;9.122;2022-12-29T01:43:57;13.40;63.50
67598;DHT22;62026;39.230;9.122;2022-12-29T01:46:51;13.40;63.60
67598;DHT22;62026;39.230;9.122;2022-12-29T01:49:21;13.40;63.70
67598;DHT22;62026;39.230;9.122;2022-12-29T01:52:05;13.30;63.70
67598;DHT22;62026;39.230;9.122;2022-12-29T01:54:40;13.40;63.80
67598;DHT22;62026;39.230;9.122;2022-12-29T01:57:18;13.30;63.80
67598;DHT22;62026;39.230;9.122;2022-12-29T02:00:05;13.30;63.80
67598;DHT22;62026;39.230;9.122;2022-12-29T02:02:46;13.30;63.90
67598;DHT22;62026;39.230;9.122;2022-12-29T02:05:37;13.30;63.90
67598;DHT22;62026;39.230;9.122;2022-12-29T02:08:12;13.30;64.00
67598;DHT22;62026;39.230;9.122;2022-12-29T02:10:39;13.20;63.80
67598;DHT22;62026;39.230;9.122;2022-12-29T02:13:06;13.20;63.80
67598;DHT22;62026;39.230;9.122;2022-12-29T02:22:51;13.20;64.00
67598;DHT22;62026;39.230;9.122;2022-12-29T02:27:55;13.20;63.90
67598;DHT22;62026;39.230;9.122;2022-12-29T02:37:06;13.10;64.00
67598;DHT22;62026;39.230;9.122;2022-12-29T02:40:06;13.10;64.20
67598;DHT22;62026;39.230;9.122;2022-12-29T02:42:49;13.10;64.20
67598;DHT22;62026;39.230;9.122;2022-12-29T02:50:58;13.10;64.20
67598;DHT22;62026;39.230;9.122;2022-12-29T02:53:29;13.00;64.30
67598;DHT22;62026;39.230;9.122;2022-12-29T02:56:17;13.00;64.20
67598;DHT22;62026;39.230;9.122;2022-12-29T02:58:43;13.00;64.20
67598;DHT22;62026;39.230;9.122;2022-12-29T03:10:41;12.90;64.30
67598;DHT22;62026;39.230;9.122;2022-12-29T03:19:36;12.80;63.50
67598;DHT22;62026;39.230;9.122;2022-12-29T03:22:13;12.80;63.30
67598;DHT22;62026;39.230;9.122;2022-12-29T03:25:28;12.80;63.10
67598;DHT22;62026;39.230;9.122;2022-12-29T03:28:05;12.80;62.80
67598;DHT22;62026;39.230;9.122;2022-12-29T03:30:41;12.70;62.70
67598;DHT22;62026;39.230;9.122;2022-12-29T03:33:14;12.70;62.80
67598;DHT22;62026;39.230;9.122;2022-12-29T03:35:44;12.70;62.70
67598;DHT22;62026;39.230;9.122;2022-12-29T03:38:19;12.70;62.70
67598;DHT22;62026;39.230;9.122;2022-12-29T03:40:52;12.60;62.90
67598;DHT22;62026;39.230;9.122;2022-12-29T03:43:27;12.60;62.80
67598;DHT22;62026;39.230;9.122;2022-12-29T03:45:54;12.60;62.90
67598;DHT22;62026;39.230;9.122;2022-12-29T03:48:20;12.60;62.60
67598;DHT22;62026;39.230;9.122;2022-12-29T03:50:48;12.60;62.60
67598;DHT22;62026;39.230;9.122;2022-12-29T03:53:14;12.60;62.60
67598;DHT22;62026;39.230;9.122;2022-12-29T03:55:41;12.60;62.40
67598;DHT22;62026;39.230;9.122;2022-12-29T03:58:11;12.50;62.40
67598;DHT22;62026;39.230;9.122;2022-12-29T04:00:51;12.50;62.40
67598;DHT22;62026;39.230;9.122;2022-12-29T04:03:17;12.50;62.40
67598;DHT22;62026;39.230;9.122;2022-12-29T04:05:43;12.50;62.40
67598;DHT22;62026;39.230;9.122;2022-12-29T04:08:09;12.50;62.30
67598;DHT22;62026;39.230;9.122;2022-12-29T04:10:36;12.50;62.30
67598;DHT22;62026;39.230;9.122;2022-12-29T04:13:04;12.50;62.40
67598;DHT22;62026;39.230;9.122;2022-12-29T04:15:30;12.50;62.40
67598;DHT22;62026;39.230;9.122;2022-12-29T04:17:57;12.50;62.40
67598;DHT22;62026;39.230;9.122;2022-12-29T04:20:23;12.50;62.40
67598;DHT22;62026;39.230;9.122;2022-12-29T04:23:08;12.50;62.40
67598;DHT22;62026;39.230;9.122;2022-12-29T04:25:35;12.40;62.50
67598;DHT22;62026;39.230;9.122;2022-12-29T04:28:02;12.50;62.40
67598;DHT22;62026;39.230;9.122;2022-12-29T04:30:41;12.50;62.30
67598;DHT22;62026;39.230;9.122;2022-12-29T04:33:15;12.50;62.30
67598;DHT22;62026;39.230;9.122;2022-12-29T04:35:42;12.50;62.40
67598;DHT22;62026;39.230;9.122;2022-12-29T04:38:10;12.50;62.30
67598;DHT22;62026;39.230;9.122;2022-12-29T04:40:38;12.50;62.10
67598;DHT22;62026;39.230;9.122;2022-12-29T04:43:06;12.50;62.00
67598;DHT22;62026;39.230;9.122;2022-12-29T04:45:43;12.50;62.10
67598;DHT22;62026;39.230;9.122;2022-12-29T04:48:23;12.50;62.10
67598;DHT22;62026;39.230;9.122;2022-12-29T04:51:03;12.50;61.90
67598;DHT22;62026;39.230;9.122;2022-12-29T04:53:35;12.40;62.00
67598;DHT22;62026;39.230;9.122;2022-12-29T04:56:01;12.50;61.90
67598;DHT22;62026;39.230;9.122;2022-12-29T04:58:27;12.40;62.00
67598;DHT22;62026;39.230;9.122;2022-12-29T05:00:53;12.40;62.00
67598;DHT22;62026;39.230;9.122;2022-12-29T05:03:22;12.40;62.00
67598;DHT22;62026;39.230;9.122;2022-12-29T05:05:48;12.40;62.00
67598;DHT22;62026;39.230;9.122;2022-12-29T05:08:15;12.40;62.00
67598;DHT22;62026;39.230;9.122;2022-12-29T05:10:44;12.40;62.00
67598;DHT22;62026;39.230;9.122;2022-12-29T05:13:11;12.30;62.10
67598;DHT22;62026;39.230;9.122;2022-12-29T05:15:38;12.30;62.10
67598;DHT22;62026;39.230;9.122;2022-12-29T05:18:04;12.30;62.20
67598;DHT22;62026;39.230;9.122;2022-12-29T05:20:30;12.30;62.10
67598;DHT22;62026;39.230;9.122;2022-12-29T05:22:59;12.30;62.10
67598;DHT22;62026;39.230;9.122;2022-12-29T05:25:25;12.30;62.10
67598;DHT22;62026;39.230;9.122;2022-12-29T05:27:58;12.30;62.30
67598;DHT22;62026;39.230;9.122;2022-12-29T05:30:38;12.20;62.30
67598;DHT22;62026;39.230;9.122;2022-12-29T05:33:04;12.30;62.40
67598;DHT22;62026;39.230;9.122;2022-12-29T05:35:33;12.20;62.40
67598;DHT22;62026;39.230;9.122;2022-12-29T05:37:59;12.20;62.50
67598;DHT22;62026;39.230;9.122;2022-12-29T05:40:26;12.20;62.50
67598;DHT22;62026;39.230;9.122;2022-12-29T05:42:56;12.10;62.40
67598;DHT22;62026;39.230;9.122;2022-12-29T05:45:51;12.10;62.60
67598;DHT22;62026;39.230;9.122;2022-12-29T05:48:35;12.10;62.70
67598;DHT22;62026;39.230;9.122;2022-12-29T05:51:13;12.10;62.80
67598;DHT22;62026;39.230;9.122;2022-12-29T05:53:47;12.10;62.80
67598;DHT22;62026;39.230;9.122;2022-12-29T05:56:13;12.10;62.80
67598;DHT22;62026;39.230;9.122;2022-12-29T05:58:40;12.10;62.90
67598;DHT22;62026;39.230;9.122;2022-12-29T06:01:06;12.10;63.00
67598;DHT22;62026;39.230;9.122;2022-12-29T06:03:32;12.10;63.10
67598;DHT22;62026;39.230;9.122;2022-12-29T06:05:58;12.10;63.10
67598;DHT22;62026;39.230;9.122;2022-12-29T06:08:25;12.10;63.10
67598;DHT22;62026;39.230;9.122;2022-12-29T06:10:52;12.10;63.10
67598;DHT22;62026;39.230;9.122;2022-12-29T06:13:18;12.10;63.10
67598;DHT22;62026;39.230;9.122;2022-12-29T06:15:48;12.10;63.10
67598;DHT22;62026;39.230;9.122;2022-12-29T06:18:15;12.10;63.30
67598;DHT22;62026;39.230;9.122;2022-12-29T06:20:43;12.10;63.20
67598;DHT22;62026;39.230;9.122;2022-12-29T06:23:09;12.10;63.30
67598;DHT22;62026;39.230;9.122;2022-12-29T06:25:35;12.10;63.30
67598;DHT22;62026;39.230;9.122;2022-12-29T06:28:02;12.10;63.40
67598;DHT22;62026;39.230;9.122;2022-12-29T06:30:29;12.10;63.50
67598;DHT22;62026;39.230;9.122;2022-12-29T06:32:55;12.10;63.50
67598;DHT22;62026;39.230;9.122;2022-12-29T06:35:22;12.10;63.60
67598;DHT22;62026;39.230;9.122;2022-12-29T06:37:50;12.10;63.70
67598;DHT22;62026;39.230;9.122;2022-12-29T06:40:17;12.10;63.70
67598;DHT22;62026;39.230;9.122;2022-12-29T06:43:09;12.20;63.80
67598;DHT22;62026;39.230;9.122;2022-12-29T06:45:51;12.10;63.80
67598;DHT22;62026;39.230;9.122;2022-12-29T06:48:17;12.20;63.70
67598;DHT22;62026;39.230;9.122;2022-12-29T06:50:43;12.10;63.70
67598;DHT22;62026;39.230;9.122;2022-12-29T06:53:09;12.10;63.80
67598;DHT22;62026;39.230;9.122;2022-12-29T06:55:36;12.10;63.90
67598;DHT22;62026;39.230;9.122;2022-12-29T06:58:02;12.10;63.90
67598;DHT22;62026;39.230;9.122;2022-12-29T07:00:28;12.00;63.90
67598;DHT22;62026;39.230;9.122;2022-12-29T07:02:55;12.10;63.80
67598;DHT22;62026;39.230;9.122;2022-12-29T07:05:24;12.20;63.80
67598;DHT22;62026;39.230;9.122;2022-12-29T07:07:52;12.10;63.70
67598;DHT22;62026;39.230;9.122;2022-12-29T07:10:19;12.10;63.70
67598;DHT22;62026;39.230;9.122;2022-12-29T07:12:45;12.10;63.70
67598;DHT22;62026;39.230;9.122;2022-12-29T07:15:11;12.20;63.60
67598;DHT22;62026;39.230;9.122;2022-12-29T07:17:37;12.20;63.50
67598;DHT22;62026;39.230;9.122;2022-12-29T07:20:03;12.30;63.50
67598;DHT22;62026;39.230;9.122;2022-12-29T07:22:30;12.40;63.30
67598;DHT22;62026;39.230;9.122;2022-12-29T07:24:56;12.40;63.10
67598;DHT22;62026;39.230;9.122;2022-12-29T07:27:22;12.40;63.00
67598;DHT22;62026;39.230;9.122;2022-12-29T07:29:48;12.50;62.90
67598;DHT22;62026;39.230;9.122;2022-12-29T07:32:14;12.60;62.80
67598;DHT22;62026;39.230;9.122;2022-12-29T07:34:40;12.70;62.70
67598;DHT22;62026;39.230;9.122;2022-12-29T07:37:06;12.80;62.30
67598;DHT22;62026;39.230;9.122;2022-12-29T07:39:32;13.00;62.00
67598;DHT22;62026;39.230;9.122;2022-12-29T07:41:58;13.10;61.80
67598;DHT22;62026;39.230;9.122;2022-12-29T07:44:25;13.20;61.50
67598;DHT22;62026;39.230;9.122;2022-12-29T07:47:09;13.10;61.60
67598;DHT22;62026;39.230;9.122;2022-12-29T07:49:35;13.30;61.40
67598;DHT22;62026;39.230;9.122;2022-12-29T07:52:01;13.40;61.20
67598;DHT22;62026;39.230;9.122;2022-12-29T07:54:27;13.50;61.10
67598;DHT22;62026;39.230;9.122;2022-12-29T07:56:53;13.60;60.90
67598;DHT22;62026;39.230;9.122;2022-12-29T07:59:19;13.80;61.00
67598;DHT22;62026;39.230;9.122;2022-12-29T08:01:45;14.20;60.40
67598;DHT22;62026;39.230;9.122;2022-12-29T08:04:11;14.40;59.80
67598;DHT22;62026;39.230;9.122;2022-12-29T08:06:37;14.60;59.60
67598;DHT22;62026;39.230;9.122;2022-12-29T08:09:04;14.60;59.20
67598;DHT22;62026;39.230;9.122;2022-12-29T08:11:30;14.70;59.00
67598;DHT22;62026;39.230;9.122;2022-12-29T08:13:55;14.90;59.20
67598;DHT22;62026;39.230;9.122;2022-12-29T08:16:21;14.80;59.20
67598;DHT22;62026;39.230;9.122;2022-12-29T08:18:47;14.80;59.10
67598;DHT22;62026;39.230;9.122;2022-12-29T08:21:13;15.00;59.20
67598;DHT22;62026;39.230;9.122;2022-12-29T08:23:39;15.20;58.60
67598;DHT22;62026;39.230;9.122;2022-12-29T08:26:05;15.30;58.50
67598;DHT22;62026;39.230;9.122;2022-12-29T08:28:32;15.40;58.70
67598;DHT22;62026;39.230;9.122;2022-12-29T08:31:00;15.50;58.20
67598;DHT22;62026;39.230;9.122;2022-12-29T08:33:28;15.60;58.10
67598;DHT22;62026;39.230;9.122;2022-12-29T08:36:05;15.70;57.60
67598;DHT22;62026;39.230;9.122;2022-12-29T08:38:32;15.80;57.30
67598;DHT22;62026;39.230;9.122;2022-12-29T08:40:59;15.90;56.70
67598;DHT22;62026;39.230;9.122;2022-12-29T08:43:27;15.90;56.20
67598;DHT22;62026;39.230;9.122;2022-12-29T08:45:54;15.90;56.10
67598;DHT22;62026;39.230;9.122;2022-12-29T08:48:19;16.20;55.90
67598;DHT22;62026;39.230;9.122;2022-12-29T08:50:48;16.50;55.40
67598;DHT22;62026;39.230;9.122;2022-12-29T08:53:16;16.80;55.00
67598;DHT22;62026;39.230;9.122;2022-12-29T08:55:45;17.00;54.80
67598;DHT22;62026;39.230;9.122;2022-12-29T08:58:13;17.10;54.70
67598;DHT22;62026;39.230;9.122;2022-12-29T09:00:42;17.20;54.40
67598;DHT22;62026;39.230;9.122;2022-12-29T09:03:08;17.20;54.50
67598;DHT22;62026;39.230;9.122;2022-12-29T09:05:34;17.20;54.40
67598;DHT22;62026;39.230;9.122;2022-12-29T09:08:00;17.40;54.40
67598;DHT22;62026;39.230;9.122;2022-12-29T09:10:26;17.50;54.00
67598;DHT22;62026;39.230;9.122;2022-12-29T09:12:52;17.70;54.00
67598;DHT22;62026;39.230;9.122;2022-12-29T09:15:18;17.80;53.80
67598;DHT22;62026;39.230;9.122;2022-12-29T09:17:44;18.00;53.60
67598;DHT22;62026;39.230;9.122;2022-12-29T09:20:13;18.00;53.40
67598;DHT22;62026;39.230;9.122;2022-12-29T09:22:42;18.00;53.50
67598;DHT22;62026;39.230;9.122;2022-12-29T09:25:09;18.10;53.30
67598;DHT22;62026;39.230;9.122;2022-12-29T09:27:36;18.10;53.70
67598;DHT22;62026;39.230;9.122;2022-12-29T09:30:07;18.30;53.40
67598;DHT22;62026;39.230;9.122;2022-12-29T09:32:35;18.20;54.10
67598;DHT22;62026;39.230;9.122;2022-12-29T09:35:02;18.20;53.90
67598;DHT22;62026;39.230;9.122;2022-12-29T09:37:28;18.20;54.80
67598;DHT22;62026;39.230;9.122;2022-12-29T09:39:54;18.30;54.90
67598;DHT22;62026;39.230;9.122;2022-12-29T09:42:27;18.40;54.90
67598;DHT22;62026;39.230;9.122;2022-12-29T09:47:47;18.50;56.40
67598;DHT22;62026;39.230;9.122;2022-12-29T09:53:00;18.70;56.80
67598;DHT22;62026;39.230;9.122;2022-12-29T09:55:41;18.70;57.90
67598;DHT22;62026;39.230;9.122;2022-12-29T09:58:24;18.70;58.60
67598;DHT22;62026;39.230;9.122;2022-12-29T10:03:44;18.90;59.30
67598;DHT22;62026;39.230;9.122;2022-12-29T10:23:40;19.10;60.00
67598;DHT22;62026;39.230;9.122;2022-12-29T10:26:38;19.30;59.90
67598;DHT22;62026;39.230;9.122;2022-12-29T10:29:18;19.30;59.70
67598;DHT22;62026;39.230;9.122;2022-12-29T10:31:48;19.30;59.90
67598;DHT22;62026;39.230;9.122;2022-12-29T10:37:04;19.10;60.90
67598;DHT22;62026;39.230;9.122;2022-12-29T10:39:43;19.00;61.00
67598;DHT22;62026;39.230;9.122;2022-12-29T10:42:36;19.00;61.30
67598;DHT22;62026;39.230;9.122;2022-12-29T10:45:13;19.10;61.30
67598;DHT22;62026;39.230;9.122;2022-12-29T10:47:54;19.00;61.40
67598;DHT22;62026;39.230;9.122;2022-12-29T10:50:24;19.00;61.60
67598;DHT22;62026;39.230;9.122;2022-12-29T10:52:52;18.90;61.80
67598;DHT22;62026;39.230;9.122;2022-12-29T10:55:24;18.80;62.30
67598;DHT22;62026;39.230;9.122;2022-12-29T10:57:54;18.60;62.80
67598;DHT22;62026;39.230;9.122;2022-12-29T11:00:25;18.60;63.30
67598;DHT22;62026;39.230;9.122;2022-12-29T11:08:13;18.50;64.30
67598;DHT22;62026;39.230;9.122;2022-12-29T11:10:44;18.50;64.50
67598;DHT22;62026;39.230;9.122;2022-12-29T11:13:17;18.40;65.10
67598;DHT22;62026;39.230;9.122;2022-12-29T11:15:47;18.30;65.10
67598;DHT22;62026;39.230;9.122;2022-12-29T11:24:03;18.00;66.20
67598;DHT22;62026;39.230;9.122;2022-12-29T11:26:32;18.00;66.50
67598;DHT22;62026;39.230;9.122;2022-12-29T11:31:57;17.90;67.00
67598;DHT22;62026;39.230;9.122;2022-12-29T11:34:35;17.80;67.70
67598;DHT22;62026;39.230;9.122;2022-12-29T11:37:10;17.70;67.70
67598;DHT22;62026;39.230;9.122;2022-12-29T11:42:32;17.80;67.80
67598;DHT22;62026;39.230;9.122;2022-12-29T11:48:09;17.70;68.20
67598;DHT22;62026;39.230;9.122;2022-12-29T11:50:53;17.70;68.20
67598;DHT22;62026;39.230;9.122;2022-12-29T11:56:05;17.60;68.60
67598;DHT22;62026;39.230;9.122;2022-12-29T11:58:38;17.60;68.70
67598;DHT22;62026;39.230;9.122;2022-12-29T12:01:11;17.60;69.00
67598;DHT22;62026;39.230;9.122;2022-12-29T12:03:53;17.50;69.30
67598;DHT22;62026;39.230;9.122;2022-12-29T12:06:27;17.50;69.50
67598;DHT22;62026;39.230;9.122;2022-12-29T12:09:05;17.50;69.70
67598;DHT22;62026;39.230;9.122;2022-12-29T12:11:40;17.50;69.80
67598;DHT22;62026;39.230;9.122;2022-12-29T12:17:21;17.40;69.70
67598;DHT22;62026;39.230;9.122;2022-12-29T12:25:37;17.30;70.70
67598;DHT22;62026;39.230;9.122;2022-12-29T12:28:24;17.30;70.50
67598;DHT22;62026;39.230;9.122;2022-12-29T12:31:00;17.30;70.70
67598;DHT22;62026;39.230;9.122;2022-12-29T12:33:41;17.20;70.80
67598;DHT22;62026;39.230;9.122;2022-12-29T12:36:43;17.20;71.10
67598;DHT22;62026;39.230;9.122;2022-12-29T12:42:30;17.20;71.10
67598;DHT22;62026;39.230;9.122;2022-12-29T12:54:22;17.10;71.80
67598;DHT22;62026;39.230;9.122;2022-12-29T12:59:59;17.10;71.60
67598;DHT22;62026;39.230;9.122;2022-12-29T13:05:47;17.10;71.70
67598;DHT22;62026;39.230;9.122;2022-12-29T13:15:23;17.10;71.90
67598;DHT22;62026;39.230;9.122;2022-12-29T13:39:09;17.10;72.50
67598;DHT22;62026;39.230;9.122;2022-12-29T13:41:46;17.10;72.60
67598;DHT22;62026;39.230;9.122;2022-12-29T13:44:43;17.10;72.40
67598;DHT22;62026;39.230;9.122;2022-12-29T13:47:51;17.10;72.60
67598;DHT22;62026;39.230;9.122;2022-12-29T13:50:26;17.10;72.60
67598;DHT22;62026;39.230;9.122;2022-12-29T13:53:26;17.10;72.70
67598;DHT22;62026;39.230;9.122;2022-12-29T14:04:29;17.00;73.20
67598;DHT22;62026;39.230;9.122;2022-12-29T14:07:13;17.00;73.30
67598;DHT22;62026;39.230;9.122;2022-12-29T14:09:53;17.00;73.20
67598;DHT22;62026;39.230;9.122;2022-12-29T14:12:40;17.00;73.20
67598;DHT22;62026;39.230;9.122;2022-12-29T14:17:43;17.00;73.40
67598;DHT22;62026;39.230;9.122;2022-12-29T14:20:21;17.00;73.40
67598;DHT22;62026;39.230;9.122;2022-12-29T14:23:01;17.00;73.60
67598;DHT22;62026;39.230;9.122;2022-12-29T14:36:41;17.00;73.80
67598;DHT22;62026;39.230;9.122;2022-12-29T14:42:05;16.90;74.20
67598;DHT22;62026;39.230;9.122;2022-12-29T14:44:32;16.90;74.00
67598;DHT22;62026;39.230;9.122;2022-12-29T14:47:04;16.90;74.30
67598;DHT22;62026;39.230;9.122;2022-12-29T14:49:41;16.90;74.30
67598;DHT22;62026;39.230;9.122;2022-12-29T14:52:22;16.90;74.30
67598;DHT22;62026;39.230;9.122;2022-12-29T14:57:42;16.90;74.40
67598;DHT22;62026;39.230;9.122;2022-12-29T15:00:24;16.90;74.40
67598;DHT22;62026;39.230;9.122;2022-12-29T15:06:03;16.80;74.30
67598;DHT22;62026;39.230;9.122;2022-12-29T15:11:41;16.80;74.90
67598;DHT22;62026;39.230;9.122;2022-12-29T15:14:30;16.70;74.90
67598;DHT22;62026;39.230;9.122;2022-12-29T15:16:58;16.70;74.90
67598;DHT22;62026;39.230;9.122;2022-12-29T15:19:27;16.70;74.90
67598;DHT22;62026;39.230;9.122;2022-12-29T15:21:55;16.70;75.00
67598;DHT22;62026;39.230;9.122;2022-12-29T15:24:22;16.70;75.30
67598;DHT22;62026;39.230;9.122;2022-12-29T15:26:50;16.70;75.50
67598;DHT22;62026;39.230;9.122;2022-12-29T15:29:40;16.70;75.20
67598;DHT22;62026;39.230;9.122;2022-12-29T15:32:27;16.70;75.20
67598;DHT22;62026;39.230;9.122;2022-12-29T15:34:57;16.70;75.10
67598;DHT22;62026;39.230;9.122;2022-12-29T15:37:28;16.70;75.40
67598;DHT22;62026;39.230;9.122;2022-12-29T15:40:01;16.70;75.30
67598;DHT22;62026;39.230;9.122;2022-12-29T15:45:10;16.70;75.40
67598;DHT22;62026;39.230;9.122;2022-12-29T15:47:38;16.70;75.20
67598;DHT22;62026;39.230;9.122;2022-12-29T15:52:39;16.70;75.30
67598;DHT22;62026;39.230;9.122;2022-12-29T15:55:06;16.70;75.30
67598;DHT22;62026;39.230;9.122;2022-12-29T15:57:46;16.70;75.40
67598;DHT22;62026;39.230;9.122;2022-12-29T16:00:26;16.70;75.40
67598;DHT22;62026;39.230;9.122;2022-12-29T16:02:55;16.70;75.30
67598;DHT22;62026;39.230;9.122;2022-12-29T16:05:24;16.70;75.40
67598;DHT22;62026;39.230;9.122;2022-12-29T16:07:58;16.70;75.50
67598;DHT22;62026;39.230;9.122;2022-12-29T16:10:39;16.70;75.40
67598;DHT22;62026;39.230;9.122;2022-12-29T16:13:18;16.70;75.40
67598;DHT22;62026;39.230;9.122;2022-12-29T16:15:54;16.70;75.50
67598;DHT22;62026;39.230;9.122;2022-12-29T16:18:28;16.70;75.50
67598;DHT22;62026;39.230;9.122;2022-12-29T16:20:58;16.70;75.70
67598;DHT22;62026;39.230;9.122;2022-12-29T16:23:26;16.70;75.70
67598;DHT22;62026;39.230;9.122;2022-12-29T16:25:56;16.60;75.70
67598;DHT22;62026;39.230;9.122;2022-12-29T16:28:27;16.60;75.10
67598;DHT22;62026;39.230;9.122;2022-12-29T16:31:05;16.50;74.40
67598;DHT22;62026;39.230;9.122;2022-12-29T16:33:39;16.50;74.40
67598;DHT22;62026;39.230;9.122;2022-12-29T16:36:41;16.50;74.40
67598;DHT22;62026;39.230;9.122;2022-12-29T16:39:30;16.40;74.70
67598;DHT22;62026;39.230;9.122;2022-12-29T16:42:33;16.40;74.70
67598;DHT22;62026;39.230;9.122;2022-12-29T16:50:32;16.40;75.90
67598;DHT22;62026;39.230;9.122;2022-12-29T16:53:04;16.40;76.00
67598;DHT22;62026;39.230;9.122;2022-12-29T16:55:32;16.40;76.00
67598;DHT22;62026;39.230;9.122;2022-12-29T16:57:59;16.40;76.00
67598;DHT22;62026;39.230;9.122;2022-12-29T17:00:28;16.40;75.80
67598;DHT22;62026;39.230;9.122;2022-12-29T17:03:00;16.40;75.90
67598;DHT22;62026;39.230;9.122;2022-12-29T17:05:28;16.40;75.90
67598;DHT22;62026;39.230;9.122;2022-12-29T17:07:54;16.40;75.80
67598;DHT22;62026;39.230;9.122;2022-12-29T17:10:26;16.40;75.90
67598;DHT22;62026;39.230;9.122;2022-12-29T17:13:12;16.40;76.00
67598;DHT22;62026;39.230;9.122;2022-12-29T17:15:38;16.40;75.80
67598;DHT22;62026;39.230;9.122;2022-12-29T17:18:04;16.40;75.70
67598;DHT22;62026;39.230;9.122;2022-12-29T17:20:31;16.40;75.80
67598;DHT22;62026;39.230;9.122;2022-12-29T17:22:58;16.30;75.90
67598;DHT22;62026;39.230;9.122;2022-12-29T17:25:37;16.30;75.90
67598;DHT22;62026;39.230;9.122;2022-12-29T17:28:19;16.30;76.00
67598;DHT22;62026;39.230;9.122;2022-12-29T17:31:00;16.30;76.10
67598;DHT22;62026;39.230;9.122;2022-12-29T17:33:30;16.30;76.10
67598;DHT22;62026;39.230;9.122;2022-12-29T17:36:00;16.30;76.20
67598;DHT22;62026;39.230;9.122;2022-12-29T17:38:31;16.30;76.30
67598;DHT22;62026;39.230;9.122;2022-12-29T17:41:00;16.40;76.30
67598;DHT22;62026;39.230;9.122;2022-12-29T17:43:26;16.30;76.30
67598;DHT22;62026;39.230;9.122;2022-12-29T17:45:56;16.30;76.30
67598;DHT22;62026;39.230;9.122;2022-12-29T17:48:24;16.40;76.30
67598;DHT22;62026;39.230;9.122;2022-12-29T17:50:51;16.30;76.30
67598;DHT22;62026;39.230;9.122;2022-12-29T17:53:24;16.30;76.10
67598;DHT22;62026;39.230;9.122;2022-12-29T17:55:52;16.20;76.10
67598;DHT22;62026;39.230;9.122;2022-12-29T17:58:26;16.20;75.90
67598;DHT22;62026;39.230;9.122;2022-12-29T18:00:56;16.20;75.70
67598;DHT22;62026;39.230;9.122;2022-12-29T18:03:30;16.20;75.70
67598;DHT22;62026;39.230;9.122;2022-12-29T18:05:57;16.10;75.50
67598;DHT22;62026;39.230;9.122;2022-12-29T18:08:24;16.10;75.40
67598;DHT22;62026;39.230;9.122;2022-12-29T18:10:53;16.10;75.20
67598;DHT22;62026;39.230;9.122;2022-12-29T18:13:30;16.10;75.10
67598;DHT22;62026;39.230;9.122;2022-12-29T18:15:59;16.10;75.10
67598;DHT22;62026;39.230;9.122;2022-12-29T18:18:26;16.00;75.10
67598;DHT22;62026;39.230;9.122;2022-12-29T18:20:54;16.00;75.10
67598;DHT22;62026;39.230;9.122;2022-12-29T18:23:29;16.00;75.10
67598;DHT22;62026;39.230;9.122;2022-12-29T18:26:16;15.90;75.10
67598;DHT22;62026;39.230;9.122;2022-12-29T18:28:44;15.90;75.00
67598;DHT22;62026;39.230;9.122;2022-12-29T18:31:20;15.90;74.90
67598;DHT22;62026;39.230;9.122;2022-12-29T18:33:49;15.90;74.80
67598;DHT22;62026;39.230;9.122;2022-12-29T18:36:17;15.90;74.50
67598;DHT22;62026;39.230;9.122;2022-12-29T18:38:43;15.80;74.50
67598;DHT22;62026;39.230;9.122;2022-12-29T18:41:18;15.80;74.40
67598;DHT22;62026;39.230;9.122;2022-12-29T18:43:47;15.80;74.30
67598;DHT22;62026;39.230;9.122;2022-12-29T18:46:13;15.80;74.10
67598;DHT22;62026;39.230;9.122;2022-12-29T18:48:39;15.70;74.10
67598;DHT22;62026;39.230;9.122;2022-12-29T18:51:05;15.70;74.00
67598;DHT22;62026;39.230;9.122;2022-12-29T18:53:35;15.70;73.90
67598;DHT22;62026;39.230;9.122;2022-12-29T18:56:02;15.70;73.90
67598;DHT22;62026;39.230;9.122;2022-12-29T18:58:29;15.70;73.80
67598;DHT22;62026;39.230;9.122;2022-12-29T19:00:54;15.70;73.90
67598;DHT22;62026;39.230;9.122;2022-12-29T19:03:20;15.60;73.80
67598;DHT22;62026;39.230;9.122;2022-12-29T19:05:47;15.60;73.80
67598;DHT22;62026;39.230;9.122;2022-12-29T19:08:13;15.60;73.90
67598;DHT22;62026;39.230;9.122;2022-12-29T19:10:40;15.60;74.10